Terminal Aerodrome Forecast
Issued by NWS

Home | Current Version | Previous Version | Text Only | Print | Product List | Glossary On
Versions: 1 2 3 4 5 6 7 8 9 10 11 12 13 14 15 16 17
901
FTUS42 TJSJ 232329
TAFJBQ
TAF
TJBQ 232329Z 2400/2424 00000KT P6SM SCT050 SCT080
     FM241300 08007KT P6SM FEW030 FEW060
     FM241800 04011KT P6SM FEW030 SCT050
      AMD NOT SKED 2402/2411=

USA.gov is the U.S. government's official web portal to all federal, state and local government web resources and services.